createdAt,value
2023-03-25T00:01:09.071Z,2.30
2023-03-25T00:03:41.987Z,2.30
2023-03-25T00:06:10.844Z,2.38
2023-03-25T00:08:38.202Z,2.58
2023-03-25T00:11:06.838Z,2.30
2023-03-25T00:13:34.179Z,2.40
2023-03-25T00:16:01.871Z,2.03
2023-03-25T00:18:33.708Z,3.08
2023-03-25T00:21:02.578Z,3.38
2023-03-25T00:23:31.722Z,3.05
2023-03-25T00:26:01.925Z,2.83
2023-03-25T00:28:31.292Z,2.97
2023-03-25T00:31:09.405Z,2.95
2023-03-25T00:33:36.149Z,2.80
2023-03-25T00:36:04.595Z,2.83
2023-03-25T00:38:35.084Z,2.72
2023-03-25T00:41:13.481Z,3.25
2023-03-25T00:43:40.973Z,3.28
2023-03-25T00:46:08.027Z,3.38
2023-03-25T00:48:34.897Z,2.67
2023-03-25T00:51:07.305Z,2.88
2023-03-25T00:53:35.082Z,3.25
2023-03-25T00:56:02.588Z,3.13
2023-03-25T00:58:29.596Z,3.15
2023-03-25T01:00:57.702Z,3.00
2023-03-25T01:03:31.074Z,3.10
2023-03-25T01:05:57.914Z,2.92
2023-03-25T01:08:25.258Z,3.55
2023-03-25T01:10:54.419Z,2.97
2023-03-25T01:13:22.413Z,3.38
2023-03-25T01:15:49.655Z,3.30
2023-03-25T01:18:16.653Z,3.28
2023-03-25T01:20:43.756Z,3.10
2023-03-25T01:23:10.721Z,3.13
2023-03-25T01:25:38.102Z,3.30
2023-03-25T01:28:05.665Z,3.10
2023-03-25T01:30:32.674Z,3.22
2023-03-25T01:32:59.495Z,3.33
2023-03-25T01:35:26.259Z,3.50
2023-03-25T01:37:54.620Z,3.00
2023-03-25T01:40:24.264Z,3.10
2023-03-25T01:42:51.650Z,3.40
2023-03-25T01:45:26.382Z,3.55
2023-03-25T01:48:00.300Z,2.73
2023-03-25T01:50:29.437Z,2.95
2023-03-25T01:52:58.334Z,2.97
2023-03-25T01:55:27.435Z,2.67
2023-03-25T01:57:56.689Z,2.80
2023-03-25T02:00:23.797Z,3.10
2023-03-25T02:02:50.853Z,2.28
2023-03-25T02:05:30.890Z,2.40
2023-03-25T02:07:57.974Z,3.08
2023-03-25T02:10:24.872Z,2.60
2023-03-25T02:12:51.847Z,2.55
2023-03-25T02:15:19.035Z,2.53
2023-03-25T02:18:14.393Z,3.17
2023-03-25T02:21:02.946Z,2.38
2023-03-25T02:23:45.921Z,2.70
2023-03-25T02:26:42.431Z,2.40
2023-03-25T02:29:43.155Z,2.60
2023-03-25T02:32:15.899Z,2.63
2023-03-25T02:34:54.583Z,2.63
2023-03-25T02:37:27.156Z,2.22
2023-03-25T02:40:02.413Z,2.80
2023-03-25T02:42:40.657Z,2.30
2023-03-25T02:45:32.504Z,1.85
2023-03-25T02:48:16.019Z,2.58
2023-03-25T02:50:55.262Z,2.88
2023-03-25T02:53:28.709Z,2.22
2023-03-25T02:56:00.135Z,2.53
2023-03-25T02:58:29.889Z,2.22
2023-03-25T03:00:58.804Z,2.63
2023-03-25T03:03:27.399Z,2.42
2023-03-25T03:05:59.034Z,3.13
2023-03-25T03:08:34.560Z,2.35
2023-03-25T03:11:23.207Z,3.03
2023-03-25T03:13:53.193Z,2.70
2023-03-25T03:16:24.702Z,2.92
2023-03-25T03:19:05.862Z,3.00
2023-03-25T03:21:47.493Z,2.78
2023-03-25T03:24:27.269Z,2.85
2023-03-25T03:27:09.111Z,2.75
2023-03-25T03:29:46.367Z,2.78
2023-03-25T03:32:32.594Z,2.75
2023-03-25T03:35:04.669Z,3.60
2023-03-25T03:37:40.135Z,2.65
2023-03-25T03:40:13.059Z,2.40
2023-03-25T03:43:03.268Z,2.33
2023-03-25T03:45:38.696Z,2.85
2023-03-25T03:48:12.715Z,2.45
2023-03-25T03:50:46.410Z,2.95
2023-03-25T03:53:33.167Z,3.03
2023-03-25T03:56:06.880Z,3.05
2023-03-25T03:58:38.748Z,2.88
2023-03-25T04:01:14.192Z,2.92
2023-03-25T04:03:53.327Z,3.55
2023-03-25T04:06:27.082Z,3.20
2023-03-25T04:09:18.605Z,3.20
2023-03-25T04:11:53.764Z,3.10
2023-03-25T04:14:21.086Z,2.90
2023-03-25T04:16:47.879Z,2.67
2023-03-25T04:19:18.562Z,3.47
2023-03-25T04:21:46.200Z,3.00
2023-03-25T04:24:16.573Z,3.30
2023-03-25T04:26:44.261Z,3.47
2023-03-25T04:29:13.812Z,3.40
2023-03-25T04:31:50.146Z,2.97
2023-03-25T04:34:16.990Z,3.85
2023-03-25T04:36:43.755Z,3.88
2023-03-25T04:39:14.082Z,3.90
2023-03-25T04:41:40.853Z,3.80
2023-03-25T04:44:08.035Z,3.35
2023-03-25T04:46:36.456Z,4.10
2023-03-25T04:49:06.132Z,3.80
2023-03-25T04:51:33.061Z,4.13
2023-03-25T04:54:00.835Z,3.83
2023-03-25T04:56:27.847Z,4.18
2023-03-25T04:58:54.778Z,3.65
2023-03-25T05:01:30.633Z,4.43
2023-03-25T05:04:05.798Z,3.97
2023-03-25T05:06:41.821Z,3.47
2023-03-25T05:09:15.484Z,3.88
2023-03-25T05:11:43.260Z,4.07
2023-03-25T05:14:11.908Z,3.90
2023-03-25T05:16:39.399Z,4.10
2023-03-25T05:19:07.288Z,4.25
2023-03-25T05:21:38.388Z,4.25
2023-03-25T05:24:08.359Z,4.13
2023-03-25T05:26:35.799Z,4.32
2023-03-25T05:29:08.420Z,3.97
2023-03-25T05:31:36.820Z,3.90
2023-03-25T05:34:06.614Z,4.07
2023-03-25T05:36:33.425Z,4.30
2023-03-25T05:39:00.343Z,4.68
2023-03-25T05:41:32.672Z,4.28
2023-03-25T05:44:00.841Z,5.20
2023-03-25T05:46:31.987Z,5.10
2023-03-25T05:49:00.835Z,4.45
2023-03-25T05:51:28.867Z,4.75
2023-03-25T05:53:55.657Z,4.90
2023-03-25T05:56:24.193Z,5.10
2023-03-25T05:58:53.147Z,4.30
2023-03-25T06:01:31.840Z,4.95
2023-03-25T06:04:01.699Z,5.57
2023-03-25T06:06:29.358Z,4.60
2023-03-25T06:08:56.170Z,4.53
2023-03-25T06:11:22.851Z,5.20
2023-03-25T06:13:49.913Z,5.05
2023-03-25T06:16:19.548Z,5.82
2023-03-25T06:18:50.926Z,5.30
2023-03-25T06:21:19.770Z,5.00
2023-03-25T06:23:49.986Z,6.70
2023-03-25T06:26:18.059Z,6.40
2023-03-25T06:28:46.114Z,6.28
2023-03-25T06:31:16.923Z,6.60
2023-03-25T06:33:44.884Z,6.75
2023-03-25T06:36:13.510Z,7.22
2023-03-25T06:38:40.337Z,7.00
2023-03-25T06:41:07.630Z,7.07
2023-03-25T06:43:34.857Z,7.82
2023-03-25T06:46:01.773Z,7.82
2023-03-25T06:48:28.866Z,8.30
2023-03-25T06:50:55.699Z,8.38
2023-03-25T06:53:22.605Z,7.78
2023-03-25T06:55:51.212Z,8.63
2023-03-25T06:58:18.207Z,8.48
2023-03-25T07:00:45.951Z,8.25
2023-03-25T07:03:13.187Z,7.95
2023-03-25T07:05:42.806Z,8.60
2023-03-25T07:08:09.621Z,9.23
2023-03-25T07:10:36.641Z,9.55
2023-03-25T07:13:03.305Z,8.93
2023-03-25T07:15:30.128Z,8.75
2023-03-25T07:17:57.071Z,9.25
2023-03-25T07:20:23.885Z,9.73
2023-03-25T07:22:50.733Z,7.78
2023-03-25T07:25:17.735Z,8.75
2023-03-25T07:27:44.452Z,8.65
2023-03-25T07:30:11.483Z,9.05
2023-03-25T07:32:38.433Z,9.20
2023-03-25T07:35:06.475Z,8.80
2023-03-25T07:37:33.183Z,9.02
2023-03-25T07:40:00.301Z,9.55
2023-03-25T07:42:27.013Z,8.65
2023-03-25T07:44:53.801Z,9.60
2023-03-25T07:47:20.857Z,10.73
2023-03-25T07:49:47.822Z,10.90
2023-03-25T07:52:14.581Z,11.95
2023-03-25T07:54:41.579Z,10.98
2023-03-25T07:57:08.392Z,11.20
2023-03-25T07:59:35.243Z,10.10
2023-03-25T08:02:02.675Z,9.73
2023-03-25T08:04:29.611Z,10.65
2023-03-25T08:06:56.409Z,11.70
2023-03-25T08:09:23.384Z,11.63
2023-03-25T08:11:51.301Z,14.50
2023-03-25T08:14:18.014Z,11.70
2023-03-25T08:16:45.116Z,11.82
2023-03-25T08:19:12.118Z,13.18
2023-03-25T08:21:39.071Z,12.95
2023-03-25T08:24:06.205Z,11.82
2023-03-25T08:26:34.198Z,12.55
2023-03-25T08:29:02.910Z,13.27
2023-03-25T08:31:33.479Z,13.10
2023-03-25T08:34:01.761Z,12.18
2023-03-25T08:36:28.639Z,15.30
2023-03-25T08:38:55.998Z,14.60
2023-03-25T08:41:23.005Z,15.70
2023-03-25T08:43:50.372Z,14.45
2023-03-25T08:46:17.182Z,14.68
2023-03-25T08:48:44.560Z,15.13
2023-03-25T08:51:11.324Z,14.73
2023-03-25T08:53:38.124Z,12.77
2023-03-25T08:56:05.549Z,14.63
2023-03-25T08:58:32.268Z,13.60
2023-03-25T09:00:59.038Z,14.27
2023-03-25T09:03:27.352Z,13.18
2023-03-25T09:05:54.854Z,13.48
2023-03-25T09:08:22.316Z,13.55
2023-03-25T09:10:49.388Z,13.20
2023-03-25T09:13:16.563Z,13.10
2023-03-25T09:15:43.517Z,11.93
2023-03-25T09:18:10.624Z,12.85
2023-03-25T09:20:37.596Z,12.63
2023-03-25T09:23:04.458Z,13.23
2023-03-25T09:25:31.403Z,12.10
2023-03-25T09:27:58.142Z,13.35
2023-03-25T09:30:24.924Z,12.70
2023-03-25T09:32:51.637Z,11.90
2023-03-25T09:35:18.754Z,13.10
2023-03-25T09:37:45.766Z,12.93
2023-03-25T09:40:21.213Z,12.10
2023-03-25T09:43:09.770Z,12.55
2023-03-25T09:45:41.826Z,11.38
2023-03-25T09:48:14.703Z,12.15
2023-03-25T09:50:43.303Z,10.73
2023-03-25T09:53:10.210Z,10.45
2023-03-25T09:55:42.712Z,11.13
2023-03-25T09:58:41.524Z,10.68
2023-03-25T10:01:46.664Z,9.93
2023-03-25T10:04:35.343Z,10.13
2023-03-25T10:07:36.367Z,10.70
2023-03-25T10:10:27.028Z,11.43
2023-03-25T10:13:23.864Z,11.95
2023-03-25T10:15:59.042Z,9.68
2023-03-25T10:18:44.305Z,11.48
2023-03-25T10:21:17.014Z,12.85
2023-03-25T10:24:04.753Z,12.43
2023-03-25T10:26:47.148Z,11.40
2023-03-25T10:29:18.559Z,12.30
2023-03-25T10:31:59.798Z,12.85
2023-03-25T10:34:36.187Z,11.70
2023-03-25T10:37:07.701Z,12.13
2023-03-25T10:39:39.994Z,10.77
2023-03-25T10:42:15.585Z,10.45
2023-03-25T10:44:43.824Z,9.88
2023-03-25T10:47:19.421Z,9.48
2023-03-25T10:49:48.079Z,8.68
2023-03-25T10:52:16.290Z,7.78
2023-03-25T10:54:51.710Z,7.15
2023-03-25T11:00:16.893Z,4.63
2023-03-25T11:02:44.162Z,5.40
2023-03-25T11:05:15.359Z,3.55
2023-03-25T11:07:56.395Z,5.00
2023-03-25T11:10:31.963Z,2.67
2023-03-25T11:13:03.870Z,3.20
2023-03-25T11:15:34.524Z,5.55
2023-03-25T11:18:08.308Z,5.40
2023-03-25T11:20:40.003Z,6.22
2023-03-25T11:23:14.683Z,7.20
2023-03-25T11:25:43.518Z,5.90
2023-03-25T11:28:32.736Z,5.20
2023-03-25T11:31:11.680Z,5.65
2023-03-25T11:33:40.227Z,4.50
2023-03-25T11:36:13.111Z,5.72
2023-03-25T11:38:40.938Z,5.35
2023-03-25T11:41:08.232Z,3.80
2023-03-25T11:43:38.086Z,3.10
2023-03-25T11:46:14.455Z,3.22
2023-03-25T11:48:43.270Z,3.20
2023-03-25T11:51:31.759Z,2.65
2023-03-25T11:54:02.239Z,3.67
2023-03-25T11:56:40.769Z,2.80
2023-03-25T11:59:27.133Z,3.03
2023-03-25T12:02:03.464Z,1.05
2023-03-25T12:04:31.180Z,1.40
2023-03-25T12:07:09.527Z,1.75
2023-03-25T12:09:36.739Z,1.48
2023-03-25T12:12:12.519Z,1.80
2023-03-25T12:15:08.360Z,1.48
2023-03-25T12:17:59.526Z,1.48
2023-03-25T12:20:51.313Z,1.48
2023-03-25T12:23:37.071Z,1.40
2023-03-25T12:26:11.087Z,1.80
2023-03-25T12:28:41.250Z,1.85
2023-03-25T12:31:30.124Z,1.52
2023-03-25T12:34:03.585Z,1.45
2023-03-25T12:36:48.660Z,1.70
2023-03-25T12:39:43.201Z,1.40
2023-03-25T12:42:40.039Z,1.48
2023-03-25T12:45:15.086Z,1.48
2023-03-25T12:48:23.078Z,1.30
2023-03-25T12:51:12.641Z,1.20
2023-03-25T12:53:53.246Z,1.58
2023-03-25T12:56:41.895Z,0.90
2023-03-25T12:59:17.211Z,1.20
2023-03-25T13:02:05.803Z,1.17
2023-03-25T13:04:49.210Z,1.17
2023-03-25T13:07:21.754Z,1.40
2023-03-25T13:09:57.815Z,1.10
2023-03-25T13:12:48.140Z,1.20
2023-03-25T13:15:27.304Z,1.00
2023-03-25T13:18:11.355Z,0.93
2023-03-25T13:20:43.012Z,1.33
2023-03-25T13:23:17.592Z,0.90
2023-03-25T13:25:59.219Z,1.00
2023-03-25T13:28:38.527Z,1.02
2023-03-25T13:31:14.523Z,1.00
2023-03-25T13:34:06.842Z,1.10
2023-03-25T13:36:41.400Z,1.10
2023-03-25T13:39:27.713Z,1.02
2023-03-25T13:42:07.561Z,0.93
2023-03-25T13:44:38.619Z,0.80
2023-03-25T13:47:05.277Z,0.90
2023-03-25T13:49:37.936Z,0.80
2023-03-25T13:52:07.494Z,0.70
2023-03-25T13:54:46.707Z,1.00
2023-03-25T13:57:41.449Z,0.80
2023-03-25T14:00:45.353Z,1.00
2023-03-25T14:03:49.599Z,0.80
2023-03-25T14:06:46.979Z,0.77
2023-03-25T14:09:16.767Z,0.77
2023-03-25T14:12:12.049Z,0.90
2023-03-25T14:14:49.064Z,0.90
2023-03-25T14:17:19.679Z,1.05
2023-03-25T14:19:55.321Z,0.90
2023-03-25T14:22:31.856Z,1.00
2023-03-25T14:25:00.376Z,1.00
2023-03-25T14:27:35.080Z,1.02
2023-03-25T14:30:08.625Z,0.90
2023-03-25T14:32:40.977Z,0.73
2023-03-25T14:35:41.836Z,0.82
2023-03-25T14:38:08.777Z,0.88
2023-03-25T14:43:53.042Z,0.70
2023-03-25T14:46:24.617Z,0.90
2023-03-25T14:49:05.769Z,0.63
2023-03-25T14:51:35.098Z,0.50
2023-03-25T14:54:23.705Z,0.57
2023-03-25T14:56:56.549Z,0.70
2023-03-25T14:59:30.951Z,0.68
2023-03-25T15:02:09.532Z,0.70
2023-03-25T15:04:40.157Z,0.70
2023-03-25T15:07:13.861Z,0.60
2023-03-25T15:09:52.476Z,0.68
2023-03-25T15:12:24.108Z,0.70
2023-03-25T15:14:56.860Z,0.70
2023-03-25T15:17:46.806Z,0.57
2023-03-25T15:20:28.774Z,0.60
2023-03-25T15:23:31.288Z,0.52
2023-03-25T15:26:00.930Z,0.75
2023-03-25T15:28:43.932Z,0.65
2023-03-25T15:31:42.013Z,0.60
2023-03-25T15:34:37.463Z,0.60
2023-03-25T15:37:35.984Z,0.40
2023-03-25T15:40:39.377Z,0.50
2023-03-25T15:43:06.056Z,0.40
2023-03-25T15:45:58.402Z,0.60
2023-03-25T15:48:41.693Z,0.40
2023-03-25T15:51:46.992Z,0.70
2023-03-25T15:54:25.581Z,0.70
2023-03-25T15:56:57.400Z,0.50
2023-03-25T16:00:05.557Z,0.57
2023-03-25T16:02:57.438Z,0.60
2023-03-25T16:05:24.818Z,0.60
2023-03-25T16:07:52.239Z,0.73
2023-03-25T16:10:31.045Z,0.70
2023-03-25T16:12:57.748Z,0.47
2023-03-25T16:15:30.342Z,0.50
2023-03-25T16:17:58.789Z,0.50
2023-03-25T16:20:28.807Z,0.40
2023-03-25T16:22:57.445Z,0.60
2023-03-25T16:25:38.255Z,0.40
2023-03-25T16:28:08.157Z,0.70
2023-03-25T16:30:38.996Z,0.60
2023-03-25T16:33:10.378Z,0.50
2023-03-25T16:35:41.431Z,0.30
2023-03-25T16:38:13.315Z,0.40
2023-03-25T16:40:41.463Z,0.55
2023-03-25T16:43:23.860Z,0.55
2023-03-25T16:45:52.467Z,0.40
2023-03-25T16:48:54.995Z,0.50
2023-03-25T16:51:29.920Z,0.40
2023-03-25T16:54:00.830Z,0.50
2023-03-25T16:56:37.464Z,0.50
2023-03-25T16:59:22.587Z,0.50
2023-03-25T17:01:58.090Z,0.60
2023-03-25T17:04:42.213Z,0.65
2023-03-25T17:07:14.500Z,0.70
2023-03-25T17:09:43.223Z,0.60
2023-03-25T17:12:16.895Z,0.70
2023-03-25T17:14:46.728Z,0.57
2023-03-25T17:17:22.257Z,0.90
2023-03-25T17:19:52.483Z,1.27
2023-03-25T17:22:32.278Z,1.20
2023-03-25T17:25:35.361Z,1.05
2023-03-25T17:28:34.051Z,0.90
2023-03-25T17:31:16.632Z,1.13
2023-03-25T17:33:57.878Z,1.10
2023-03-25T17:36:25.053Z,0.70
2023-03-25T17:38:53.924Z,0.85
2023-03-25T17:41:21.662Z,0.82
2023-03-25T17:43:53.146Z,0.60
2023-03-25T17:46:28.890Z,0.90
2023-03-25T17:48:57.865Z,0.73
2023-03-25T17:51:26.823Z,1.05
2023-03-25T17:53:54.313Z,0.90
2023-03-25T17:56:25.711Z,0.82
2023-03-25T17:59:04.396Z,0.65
2023-03-25T18:01:32.793Z,0.90
2023-03-25T18:03:59.578Z,0.95
2023-03-25T18:06:26.494Z,1.00
2023-03-25T18:08:53.332Z,1.00
2023-03-25T18:11:20.740Z,1.00
2023-03-25T18:13:50.164Z,0.90
2023-03-25T18:16:18.989Z,1.05
2023-03-25T18:18:46.055Z,1.00
2023-03-25T18:21:14.530Z,0.85
2023-03-25T18:23:44.760Z,1.00
2023-03-25T18:26:17.345Z,0.90
2023-03-25T18:28:45.468Z,1.20
2023-03-25T18:31:16.938Z,1.02
2023-03-25T18:33:46.360Z,1.08
2023-03-25T18:36:13.384Z,1.08
2023-03-25T18:38:40.649Z,1.15
2023-03-25T18:41:10.298Z,0.98
2023-03-25T18:43:37.208Z,0.88
2023-03-25T18:46:04.337Z,1.20
2023-03-25T18:48:31.175Z,1.17
2023-03-25T18:50:59.913Z,1.17
2023-03-25T18:53:28.753Z,1.25
2023-03-25T18:56:00.989Z,1.08
2023-03-25T18:58:33.258Z,0.95
2023-03-25T19:01:03.181Z,1.25
2023-03-25T19:03:31.414Z,1.23
2023-03-25T19:05:59.961Z,1.10
2023-03-25T19:08:28.416Z,1.00
2023-03-25T19:11:04.601Z,1.38
2023-03-25T19:13:35.242Z,1.30
2023-03-25T19:16:02.061Z,1.40
2023-03-25T19:18:31.903Z,1.45
2023-03-25T19:20:58.883Z,1.30
2023-03-25T19:23:26.012Z,1.30
2023-03-25T19:25:53.492Z,1.42
2023-03-25T19:28:22.260Z,1.70
2023-03-25T19:30:50.725Z,1.80
2023-03-25T19:33:19.304Z,2.10
2023-03-25T19:35:51.051Z,1.75
2023-03-25T19:38:22.751Z,2.45
2023-03-25T19:40:51.579Z,2.97
2023-03-25T19:43:18.789Z,2.22
2023-03-25T19:45:45.627Z,1.92
2023-03-25T19:48:12.421Z,2.47
2023-03-25T19:50:40.859Z,2.00
2023-03-25T19:53:07.922Z,2.72
2023-03-25T19:55:34.742Z,1.90
2023-03-25T19:58:02.358Z,1.70
2023-03-25T20:00:30.457Z,2.10
2023-03-25T20:03:00.777Z,2.28
2023-03-25T20:05:29.724Z,2.70
2023-03-25T20:07:56.706Z,2.15
2023-03-25T20:10:27.897Z,2.03
2023-03-25T20:12:55.392Z,2.58
2023-03-25T20:15:23.374Z,2.70
2023-03-25T20:17:51.642Z,2.10
2023-03-25T20:20:19.867Z,1.55
2023-03-25T20:22:48.396Z,1.52
2023-03-25T20:25:16.376Z,1.92
2023-03-25T20:27:44.407Z,1.80
2023-03-25T20:30:14.783Z,1.60
2023-03-25T20:32:43.212Z,1.50
2023-03-25T20:35:12.988Z,2.00
2023-03-25T20:37:41.416Z,2.05
2023-03-25T20:40:13.107Z,2.10
2023-03-25T20:42:41.907Z,2.05
2023-03-25T20:45:11.862Z,1.80
2023-03-25T20:47:38.835Z,1.90
2023-03-25T20:50:07.321Z,1.80
2023-03-25T20:52:35.928Z,1.92
2023-03-25T20:55:03.119Z,1.60
2023-03-25T20:57:29.869Z,2.25
2023-03-25T20:59:57.940Z,2.03
2023-03-25T21:02:25.232Z,2.30
2023-03-25T21:04:55.059Z,2.70
2023-03-25T21:07:22.284Z,1.98
2023-03-25T21:09:49.459Z,2.33
2023-03-25T21:12:16.484Z,2.20
2023-03-25T21:14:43.460Z,2.80
2023-03-25T21:17:10.487Z,2.63
2023-03-25T21:19:37.248Z,2.40
2023-03-25T21:22:04.354Z,2.10
2023-03-25T21:24:33.840Z,2.80
2023-03-25T21:27:00.606Z,2.47
2023-03-25T21:29:27.503Z,2.78
2023-03-25T21:31:54.493Z,2.30
2023-03-25T21:34:22.089Z,2.95
2023-03-25T21:36:48.901Z,2.20
2023-03-25T21:39:15.776Z,2.92
2023-03-25T21:41:42.662Z,2.22
2023-03-25T21:44:09.470Z,2.47
2023-03-25T21:46:36.851Z,2.30
2023-03-25T21:49:03.994Z,2.60
2023-03-25T21:51:31.079Z,2.45
2023-03-25T21:53:58.750Z,2.45
2023-03-25T21:56:27.896Z,2.50
2023-03-25T21:58:54.671Z,2.80
2023-03-25T22:01:28.879Z,2.60
2023-03-25T22:03:57.704Z,2.50
2023-03-25T22:06:27.482Z,2.30
2023-03-25T22:08:56.882Z,2.53
2023-03-25T22:11:28.987Z,2.40
2023-03-25T22:13:56.470Z,2.45
2023-03-25T22:16:23.818Z,2.63
2023-03-25T22:18:50.895Z,2.17
2023-03-25T22:21:20.442Z,3.50
2023-03-25T22:23:49.109Z,4.00
2023-03-25T22:26:17.650Z,4.00
2023-03-25T22:28:45.043Z,3.35
2023-03-25T22:31:17.835Z,3.50
2023-03-25T22:33:45.546Z,3.25
2023-03-25T22:36:15.503Z,2.90
2023-03-25T22:38:45.030Z,2.85
2023-03-25T22:41:13.680Z,3.17
2023-03-25T22:43:41.107Z,3.53
2023-03-25T22:46:09.518Z,3.88
2023-03-25T22:48:39.266Z,3.75
2023-03-25T22:51:12.466Z,3.85
2023-03-25T22:53:39.890Z,3.80
2023-03-25T22:56:07.684Z,3.55
2023-03-25T22:58:34.897Z,3.95
2023-03-25T23:01:04.334Z,2.75
2023-03-25T23:03:31.627Z,3.83
2023-03-25T23:06:07.125Z,3.55
2023-03-25T23:11:18.186Z,2.90
2023-03-25T23:13:47.838Z,3.35
2023-03-25T23:16:17.920Z,3.00
2023-03-25T23:18:45.424Z,2.67
2023-03-25T23:21:15.208Z,3.25
2023-03-25T23:23:52.910Z,2.88
2023-03-25T23:26:37.075Z,2.75
2023-03-25T23:29:08.958Z,2.70
2023-03-25T23:31:37.494Z,2.20
2023-03-25T23:34:06.698Z,2.50
2023-03-25T23:36:39.296Z,2.28
2023-03-25T23:39:08.913Z,2.78
2023-03-25T23:41:35.622Z,2.25
2023-03-25T23:44:03.566Z,2.45
2023-03-25T23:46:31.019Z,2.33
2023-03-25T23:49:04.587Z,2.28
2023-03-25T23:51:42.040Z,2.00
2023-03-25T23:54:11.561Z,2.33
2023-03-25T23:56:38.712Z,2.30
2023-03-25T23:59:06.832Z,2.00
